createdAt,value
2022-10-17T00:02:16.488Z,14.71
2022-10-17T00:04:42.953Z,14.71
2022-10-17T00:07:09.375Z,14.75
2022-10-17T00:09:35.962Z,14.79
2022-10-17T00:12:02.821Z,14.79
2022-10-17T00:14:29.401Z,14.83
2022-10-17T00:16:55.853Z,14.88
2022-10-17T00:19:22.256Z,14.93
2022-10-17T00:21:49.649Z,15.02
2022-10-17T00:24:16.072Z,15.06
2022-10-17T00:26:42.471Z,15.10
2022-10-17T00:29:08.992Z,15.14
2022-10-17T00:31:35.749Z,15.15
2022-10-17T00:34:02.229Z,15.20
2022-10-17T00:36:29.408Z,15.25
2022-10-17T00:38:58.433Z,15.32
2022-10-17T00:41:29.247Z,15.36
2022-10-17T00:44:02.028Z,15.37
2022-10-17T00:46:31.204Z,15.39
2022-10-17T00:49:00.761Z,15.39
2022-10-17T00:51:49.553Z,15.39
2022-10-17T00:54:19.116Z,15.34
2022-10-17T00:56:47.778Z,15.34
2022-10-17T00:59:16.036Z,15.29
2022-10-17T01:01:49.380Z,15.30
2022-10-17T01:04:15.857Z,15.32
2022-10-17T01:06:42.265Z,15.29
2022-10-17T01:09:08.728Z,15.23
2022-10-17T01:11:56.912Z,15.18
2022-10-17T01:14:57.233Z,15.15
2022-10-17T01:17:29.568Z,15.14
2022-10-17T01:20:14.788Z,15.15
2022-10-17T01:22:50.365Z,15.10
2022-10-17T01:25:35.024Z,15.10
2022-10-17T01:28:19.909Z,15.13
2022-10-17T01:30:49.495Z,15.12
2022-10-17T01:33:22.315Z,15.08
2022-10-17T01:36:01.822Z,15.03
2022-10-17T01:38:41.986Z,15.00
2022-10-17T01:41:33.440Z,14.98
2022-10-17T01:44:04.977Z,15.03
2022-10-17T01:46:40.194Z,15.04
2022-10-17T01:49:10.580Z,15.06
2022-10-17T01:51:43.228Z,14.93
2022-10-17T01:54:19.605Z,14.90
2022-10-17T01:56:48.839Z,14.92
2022-10-17T01:59:22.394Z,14.85
2022-10-17T02:01:52.836Z,14.73
2022-10-17T02:04:20.256Z,14.54
2022-10-17T02:06:46.728Z,14.48
2022-10-17T02:09:25.405Z,14.46
2022-10-17T02:12:06.954Z,14.46
2022-10-17T02:15:11.955Z,14.38
2022-10-17T02:18:17.800Z,14.32
2022-10-17T02:20:59.408Z,14.41
2022-10-17T02:23:38.365Z,14.47
2022-10-17T02:26:19.285Z,14.49
2022-10-17T02:29:20.669Z,14.37
2022-10-17T02:31:56.776Z,14.30
2022-10-17T02:34:38.812Z,14.15
2022-10-17T02:37:08.395Z,14.16
2022-10-17T02:39:36.177Z,14.17
2022-10-17T02:42:07.774Z,14.23
2022-10-17T02:44:37.153Z,14.23
2022-10-17T02:47:36.024Z,14.20
2022-10-17T02:50:02.972Z,14.18
2022-10-17T02:53:01.271Z,14.24
2022-10-17T02:55:32.417Z,14.32
2022-10-17T02:58:11.612Z,14.35
2022-10-17T03:00:40.698Z,14.41
2022-10-17T03:03:26.041Z,14.41
2022-10-17T03:05:52.784Z,14.36
2022-10-17T03:08:19.809Z,14.37
2022-10-17T03:10:46.233Z,14.39
2022-10-17T03:13:13.598Z,14.43
2022-10-17T03:15:40.284Z,14.46
2022-10-17T03:18:06.731Z,14.38
2022-10-17T03:20:33.692Z,14.29
2022-10-17T03:23:00.487Z,14.31
2022-10-17T03:25:27.165Z,14.30
2022-10-17T03:27:53.585Z,14.26
2022-10-17T03:30:20.721Z,14.16
2022-10-17T03:32:47.143Z,14.10
2022-10-17T03:35:14.970Z,14.13
2022-10-17T03:37:41.726Z,14.12
2022-10-17T03:40:08.549Z,14.14
2022-10-17T03:42:34.975Z,14.19
2022-10-17T03:45:01.432Z,14.21
2022-10-17T03:47:29.041Z,14.23
2022-10-17T03:49:55.745Z,14.23
2022-10-17T03:52:22.317Z,14.19
2022-10-17T03:54:50.830Z,14.16
2022-10-17T03:57:18.347Z,14.04
2022-10-17T03:59:44.856Z,13.94
2022-10-17T04:02:11.402Z,13.87
2022-10-17T04:04:37.814Z,13.81
2022-10-17T04:07:04.239Z,13.67
2022-10-17T04:09:30.788Z,13.53
2022-10-17T04:11:57.240Z,13.48
2022-10-17T04:14:23.689Z,13.53
2022-10-17T04:16:50.129Z,13.57
2022-10-17T04:19:16.546Z,13.71
2022-10-17T04:21:42.999Z,13.78
2022-10-17T04:24:11.726Z,13.86
2022-10-17T04:26:38.166Z,13.89
2022-10-17T04:29:04.620Z,13.90
2022-10-17T04:31:31.086Z,13.93
2022-10-17T04:33:57.636Z,13.94
2022-10-17T04:36:24.137Z,13.93
2022-10-17T04:38:50.528Z,13.86
2022-10-17T04:41:18.364Z,13.82
2022-10-17T04:43:48.469Z,13.80
2022-10-17T04:46:17.564Z,13.81
2022-10-17T04:48:43.988Z,13.80
2022-10-17T04:51:13.573Z,13.83
2022-10-17T04:53:41.140Z,13.82
2022-10-17T04:56:13.152Z,13.82
2022-10-17T04:58:40.075Z,13.84
2022-10-17T05:01:08.117Z,13.77
2022-10-17T05:03:35.602Z,13.75
2022-10-17T05:06:07.171Z,13.71
2022-10-17T05:08:33.955Z,13.67
2022-10-17T05:11:01.039Z,13.62
2022-10-17T05:13:27.483Z,13.53
2022-10-17T05:15:54.091Z,13.45
2022-10-17T05:18:20.504Z,13.31
2022-10-17T05:20:46.916Z,13.20
2022-10-17T05:23:13.367Z,13.24
2022-10-17T05:25:39.808Z,13.30
2022-10-17T05:28:06.194Z,13.38
2022-10-17T05:30:35.309Z,13.49
2022-10-17T05:33:04.056Z,13.48
2022-10-17T05:35:30.504Z,13.50
2022-10-17T05:37:58.402Z,13.56
2022-10-17T05:40:24.813Z,13.62
2022-10-17T05:42:52.065Z,13.63
2022-10-17T05:45:18.610Z,13.58
2022-10-17T05:47:45.082Z,13.54
2022-10-17T05:50:11.603Z,13.60
2022-10-17T05:52:38.080Z,13.67
2022-10-17T05:55:05.708Z,13.71
2022-10-17T05:57:32.184Z,13.75
2022-10-17T05:59:58.811Z,13.72
2022-10-17T06:02:25.412Z,13.74
2022-10-17T06:04:51.963Z,13.76
2022-10-17T06:07:18.469Z,13.65
2022-10-17T06:12:12.249Z,13.63
2022-10-17T06:14:38.740Z,13.67
2022-10-17T06:17:05.180Z,13.63
2022-10-17T06:19:31.655Z,13.69
2022-10-17T06:21:58.074Z,13.64
2022-10-17T06:24:24.535Z,13.51
2022-10-17T06:26:51.157Z,13.41
2022-10-17T06:29:17.610Z,13.49
2022-10-17T06:31:44.120Z,13.47
2022-10-17T06:34:10.658Z,13.32
2022-10-17T06:36:37.149Z,13.26
2022-10-17T06:39:03.766Z,13.42
2022-10-17T06:41:30.237Z,13.52
2022-10-17T06:43:56.708Z,13.52
2022-10-17T06:46:26.592Z,13.43
2022-10-17T06:48:53.328Z,13.50
2022-10-17T06:51:19.786Z,13.59
2022-10-17T06:53:47.048Z,13.78
2022-10-17T06:56:13.550Z,13.95
2022-10-17T06:58:40.854Z,14.02
2022-10-17T07:01:10.183Z,14.07
2022-10-17T07:03:37.651Z,14.01
2022-10-17T07:06:04.969Z,13.98
2022-10-17T07:08:31.416Z,14.04
2022-10-17T07:10:58.606Z,14.10
2022-10-17T07:13:25.457Z,14.21
2022-10-17T07:15:52.001Z,14.31
2022-10-17T07:18:18.445Z,14.48
2022-10-17T07:20:53.032Z,14.55
2022-10-17T07:23:19.439Z,14.61
2022-10-17T07:25:45.868Z,14.65
2022-10-17T07:28:12.373Z,14.71
2022-10-17T07:30:38.797Z,14.78
2022-10-17T07:33:05.205Z,14.80
2022-10-17T07:35:31.935Z,14.83
2022-10-17T07:37:58.406Z,14.91
2022-10-17T07:40:24.841Z,14.95
2022-10-17T07:42:51.267Z,14.96
2022-10-17T07:45:17.761Z,15.02
2022-10-17T07:47:44.248Z,15.09
2022-10-17T07:50:10.849Z,15.09
2022-10-17T07:52:37.326Z,15.09
2022-10-17T07:55:04.059Z,15.13
2022-10-17T07:57:30.494Z,15.20
2022-10-17T07:59:56.991Z,15.31
2022-10-17T08:02:26.110Z,15.37
2022-10-17T08:04:53.332Z,15.45
2022-10-17T08:07:25.334Z,15.52
2022-10-17T08:09:54.980Z,15.63
2022-10-17T08:12:21.968Z,15.64
2022-10-17T08:14:48.368Z,15.62
2022-10-17T08:17:14.889Z,15.63
2022-10-17T08:19:41.454Z,15.59
2022-10-17T08:22:08.351Z,15.58
2022-10-17T08:24:35.288Z,15.58
2022-10-17T08:27:01.736Z,15.64
2022-10-17T08:29:28.274Z,15.67
2022-10-17T08:32:00.848Z,15.69
2022-10-17T08:34:28.468Z,15.67
2022-10-17T08:36:54.969Z,15.69
2022-10-17T08:39:21.391Z,15.79
2022-10-17T08:41:59.524Z,15.85
2022-10-17T08:44:47.571Z,15.90
2022-10-17T08:47:21.222Z,15.96
2022-10-17T08:49:52.451Z,16.04
2022-10-17T08:52:47.895Z,16.07
2022-10-17T08:55:42.813Z,16.12
2022-10-17T08:58:19.979Z,16.07
2022-10-17T09:00:55.784Z,16.15
2022-10-17T09:03:49.922Z,16.28
2022-10-17T09:06:20.663Z,16.35
2022-10-17T09:09:07.025Z,16.42
2022-10-17T09:11:54.666Z,16.44
2022-10-17T09:15:18.544Z,16.56
2022-10-17T09:17:52.091Z,16.69
2022-10-17T09:20:24.345Z,16.76
2022-10-17T09:23:01.417Z,16.80
2022-10-17T09:25:28.231Z,16.80
2022-10-17T09:28:06.684Z,16.82
2022-10-17T09:30:51.607Z,16.93
2022-10-17T09:33:35.327Z,16.99
2022-10-17T09:36:17.552Z,17.03
2022-10-17T09:38:49.702Z,16.93
2022-10-17T09:41:43.536Z,17.09
2022-10-17T09:44:24.527Z,17.42
2022-10-17T09:47:02.856Z,17.54
2022-10-17T09:49:34.171Z,17.50
2022-10-17T09:52:04.270Z,17.44
2022-10-17T09:55:02.681Z,17.28
2022-10-17T09:57:29.174Z,17.07
2022-10-17T10:00:02.014Z,17.18
2022-10-17T10:02:31.289Z,17.33
2022-10-17T10:05:05.941Z,17.53
2022-10-17T10:07:38.657Z,17.84
2022-10-17T10:10:26.246Z,18.01
2022-10-17T10:13:16.152Z,18.18
2022-10-17T10:15:48.088Z,18.36
2022-10-17T10:21:15.749Z,18.45
2022-10-17T10:24:04.925Z,18.56
2022-10-17T10:26:50.686Z,18.47
2022-10-17T10:29:38.254Z,18.60
2022-10-17T10:32:19.061Z,18.55
2022-10-17T10:34:52.819Z,18.59
2022-10-17T10:37:23.128Z,18.60
2022-10-17T10:39:53.109Z,18.69
2022-10-17T10:42:33.526Z,18.98
2022-10-17T10:45:29.224Z,18.89
2022-10-17T10:47:58.932Z,19.04
2022-10-17T10:50:45.062Z,19.18
2022-10-17T10:53:41.639Z,19.17
2022-10-17T10:56:17.681Z,19.30
2022-10-17T10:58:55.940Z,19.49
2022-10-17T11:01:48.823Z,19.58
2022-10-17T11:04:44.247Z,19.60
2022-10-17T11:07:17.634Z,19.74
2022-10-17T11:10:00.632Z,19.91
2022-10-17T11:12:52.784Z,19.87
2022-10-17T11:15:29.053Z,19.92
2022-10-17T11:18:00.353Z,19.86
2022-10-17T11:20:48.778Z,19.87
2022-10-17T11:23:25.988Z,20.01
2022-10-17T11:25:54.592Z,20.09
2022-10-17T11:28:23.701Z,20.13
2022-10-17T11:31:08.482Z,20.24
2022-10-17T11:33:44.090Z,20.33
2022-10-17T11:36:12.452Z,20.24
2022-10-17T11:38:47.794Z,20.12
2022-10-17T11:41:20.897Z,20.09
2022-10-17T11:44:20.224Z,20.21
2022-10-17T11:46:52.559Z,20.40
2022-10-17T11:49:24.130Z,20.42
2022-10-17T11:52:00.376Z,20.41
2022-10-17T11:54:35.161Z,20.40
2022-10-17T11:57:16.625Z,20.48
2022-10-17T11:59:57.397Z,20.66
2022-10-17T12:02:36.692Z,20.77
2022-10-17T12:05:19.248Z,20.87
2022-10-17T12:07:58.780Z,21.01
2022-10-17T12:10:37.094Z,20.92
2022-10-17T12:13:28.330Z,20.78
2022-10-17T12:15:56.409Z,20.82
2022-10-17T12:18:29.502Z,20.81
2022-10-17T12:21:00.839Z,20.83
2022-10-17T12:23:29.385Z,20.80
2022-10-17T12:26:08.283Z,20.80
2022-10-17T12:28:37.870Z,20.84
2022-10-17T12:31:13.006Z,21.02
2022-10-17T12:33:48.645Z,21.06
2022-10-17T12:36:27.450Z,21.16
2022-10-17T12:39:03.167Z,21.12
2022-10-17T12:41:38.772Z,20.99
2022-10-17T12:44:14.707Z,21.06
2022-10-17T12:46:52.357Z,21.19
2022-10-17T12:49:42.846Z,21.36
2022-10-17T12:52:24.114Z,21.50
2022-10-17T12:55:07.516Z,21.45
2022-10-17T12:57:52.362Z,21.41
2022-10-17T13:00:31.149Z,21.26
2022-10-17T13:03:14.921Z,21.20
2022-10-17T13:05:47.099Z,21.38
2022-10-17T13:08:19.568Z,21.38
2022-10-17T13:10:51.737Z,21.42
2022-10-17T13:13:23.617Z,21.41
2022-10-17T13:15:51.412Z,21.36
2022-10-17T13:18:26.391Z,21.40
2022-10-17T13:21:00.834Z,21.41
2022-10-17T13:23:31.939Z,21.42
2022-10-17T13:26:07.355Z,21.52
2022-10-17T13:28:39.057Z,21.55
2022-10-17T13:31:06.027Z,21.52
2022-10-17T13:33:35.933Z,21.51
2022-10-17T13:36:06.707Z,21.47
2022-10-17T13:38:35.693Z,21.48
2022-10-17T13:41:34.447Z,21.55
2022-10-17T13:44:00.899Z,21.55
2022-10-17T13:46:39.779Z,21.70
2022-10-17T13:49:25.854Z,21.77
2022-10-17T13:51:55.854Z,21.78
2022-10-17T13:54:34.155Z,21.65
2022-10-17T13:57:01.776Z,21.61
2022-10-17T13:59:39.868Z,21.66
2022-10-17T14:02:13.854Z,21.61
2022-10-17T14:05:11.631Z,21.54
2022-10-17T14:07:58.055Z,21.58
2022-10-17T14:10:25.189Z,21.59
2022-10-17T14:12:53.678Z,21.63
2022-10-17T14:15:23.425Z,21.60
2022-10-17T14:17:57.067Z,21.65
2022-10-17T14:20:57.522Z,21.60
2022-10-17T14:23:38.742Z,21.58
2022-10-17T14:26:28.188Z,21.52
2022-10-17T14:29:06.164Z,21.49
2022-10-17T14:31:35.946Z,21.53
2022-10-17T14:34:04.542Z,21.63
2022-10-17T14:36:38.049Z,21.63
2022-10-17T14:39:13.407Z,21.66
2022-10-17T14:41:44.483Z,21.63
2022-10-17T14:44:32.570Z,21.51
2022-10-17T14:47:18.175Z,21.48
2022-10-17T14:49:51.637Z,21.48
2022-10-17T14:52:18.851Z,21.39
2022-10-17T14:54:50.142Z,21.35
2022-10-17T14:57:42.616Z,21.41
2022-10-17T15:00:14.197Z,21.43
2022-10-17T15:02:40.621Z,21.41
2022-10-17T15:05:12.086Z,21.36
2022-10-17T15:07:39.626Z,21.31
2022-10-17T15:10:06.991Z,21.23
2022-10-17T15:12:33.414Z,21.19
2022-10-17T15:14:59.885Z,21.13
2022-10-17T15:17:34.500Z,21.13
2022-10-17T15:20:01.238Z,21.10
2022-10-17T15:22:28.028Z,21.09
2022-10-17T15:24:54.722Z,21.05
2022-10-17T15:27:24.256Z,21.04
2022-10-17T15:29:51.653Z,21.04
2022-10-17T15:32:18.217Z,21.02
2022-10-17T15:34:44.940Z,20.96
2022-10-17T15:37:22.016Z,20.91
2022-10-17T15:39:54.130Z,20.83
2022-10-17T15:42:28.806Z,20.80
2022-10-17T15:44:56.064Z,20.78
2022-10-17T15:47:29.392Z,20.72
2022-10-17T15:49:56.998Z,20.61
2022-10-17T15:52:23.759Z,20.53
2022-10-17T15:54:50.821Z,20.44
2022-10-17T15:57:23.805Z,20.37
2022-10-17T15:59:51.840Z,20.31
2022-10-17T16:02:20.175Z,20.25
2022-10-17T16:04:47.995Z,20.23
2022-10-17T16:07:14.519Z,20.21
2022-10-17T16:09:40.961Z,20.15
2022-10-17T16:12:14.105Z,20.12
2022-10-17T16:14:40.637Z,20.05
2022-10-17T16:17:12.756Z,20.00
2022-10-17T16:19:39.174Z,19.93
2022-10-17T16:22:06.597Z,19.87
2022-10-17T16:24:33.185Z,19.81
2022-10-17T16:26:59.577Z,19.74
2022-10-17T16:29:25.997Z,19.68
2022-10-17T16:31:52.419Z,19.64
2022-10-17T16:34:18.829Z,19.60
2022-10-17T16:36:45.298Z,19.56
2022-10-17T16:39:11.710Z,19.54
2022-10-17T16:41:39.411Z,19.50
2022-10-17T16:44:08.213Z,19.43
2022-10-17T16:46:37.238Z,19.35
2022-10-17T16:49:05.500Z,19.30
2022-10-17T16:51:33.721Z,19.27
2022-10-17T16:54:00.276Z,19.24
2022-10-17T16:56:32.575Z,19.20
2022-10-17T16:59:00.013Z,19.16
2022-10-17T17:01:29.167Z,19.11
2022-10-17T17:03:56.346Z,19.08
2022-10-17T17:06:26.379Z,19.05
2022-10-17T17:08:53.644Z,19.00
2022-10-17T17:11:21.709Z,18.97
2022-10-17T17:13:48.784Z,18.92
2022-10-17T17:16:24.533Z,18.85
2022-10-17T17:18:59.773Z,18.81
2022-10-17T17:21:27.770Z,18.78
2022-10-17T17:23:58.178Z,18.70
2022-10-17T17:26:26.182Z,18.64
2022-10-17T17:28:54.198Z,18.58
2022-10-17T17:31:26.625Z,18.54
2022-10-17T17:36:29.839Z,18.49
2022-10-17T17:38:59.442Z,18.42
2022-10-17T17:41:26.737Z,18.32
2022-10-17T17:43:54.084Z,18.24
2022-10-17T17:46:21.798Z,18.19
2022-10-17T17:48:49.766Z,18.16
2022-10-17T17:51:18.533Z,18.13
2022-10-17T17:53:45.497Z,18.10
2022-10-17T17:56:17.997Z,18.12
2022-10-17T17:58:46.411Z,18.09
2022-10-17T18:01:21.368Z,18.01
2022-10-17T18:03:50.351Z,17.94
2022-10-17T18:06:18.687Z,17.91
2022-10-17T18:08:47.344Z,17.91
2022-10-17T18:11:17.048Z,17.90
2022-10-17T18:13:46.223Z,17.86
2022-10-17T18:16:13.289Z,17.82
2022-10-17T18:18:41.663Z,17.80
2022-10-17T18:21:09.932Z,17.80
2022-10-17T18:23:40.880Z,17.75
2022-10-17T18:26:07.515Z,17.69
2022-10-17T18:28:36.016Z,17.62
2022-10-17T18:31:15.438Z,17.52
2022-10-17T18:33:44.469Z,17.42
2022-10-17T18:36:14.058Z,17.40
2022-10-17T18:38:40.751Z,17.34
2022-10-17T18:41:08.420Z,17.31
2022-10-17T18:43:36.656Z,17.34
2022-10-17T18:46:12.388Z,17.39
2022-10-17T18:48:42.980Z,17.40
2022-10-17T18:51:09.429Z,17.30
2022-10-17T18:53:39.829Z,17.27
2022-10-17T18:56:06.610Z,17.23
2022-10-17T18:58:33.056Z,17.19
2022-10-17T19:01:09.645Z,17.19
2022-10-17T19:03:36.151Z,17.19
2022-10-17T19:06:04.348Z,17.14
2022-10-17T19:08:30.998Z,17.03
2022-10-17T19:10:57.408Z,16.99
2022-10-17T19:13:23.845Z,16.90
2022-10-17T19:15:50.286Z,16.80
2022-10-17T19:18:16.702Z,16.82
2022-10-17T19:20:43.153Z,16.75
2022-10-17T19:23:09.581Z,16.65
2022-10-17T19:25:36.005Z,16.55
2022-10-17T19:28:02.477Z,16.46
2022-10-17T19:30:28.971Z,16.49
2022-10-17T19:32:55.402Z,16.60
2022-10-17T19:35:22.045Z,16.70
2022-10-17T19:37:48.439Z,16.77
2022-10-17T19:40:14.933Z,16.79
2022-10-17T19:42:41.370Z,16.81
2022-10-17T19:45:08.813Z,16.79
2022-10-17T19:47:35.729Z,16.83
2022-10-17T19:50:05.129Z,16.81
2022-10-17T19:52:31.838Z,16.79
2022-10-17T19:54:58.529Z,16.76
2022-10-17T19:57:25.755Z,16.71
2022-10-17T19:59:55.124Z,16.71
2022-10-17T20:02:22.535Z,16.68
2022-10-17T20:04:59.883Z,16.72
2022-10-17T20:07:35.349Z,16.64
2022-10-17T20:10:01.806Z,16.56
2022-10-17T20:12:28.782Z,16.40
2022-10-17T20:14:55.425Z,16.37
2022-10-17T20:17:21.829Z,16.40
2022-10-17T20:19:48.268Z,16.43
2022-10-17T20:22:14.692Z,16.41
2022-10-17T20:24:41.296Z,16.43
2022-10-17T20:27:08.125Z,16.41
2022-10-17T20:29:34.536Z,16.32
2022-10-17T20:32:01.137Z,16.26
2022-10-17T20:34:27.718Z,16.19
2022-10-17T20:36:54.133Z,16.01
2022-10-17T20:39:21.052Z,15.92
2022-10-17T20:41:47.729Z,15.86
2022-10-17T20:44:14.229Z,15.86
2022-10-17T20:46:48.455Z,15.95
2022-10-17T20:49:20.050Z,15.93
2022-10-17T20:51:46.819Z,15.97
2022-10-17T20:54:13.344Z,16.02
2022-10-17T20:56:40.026Z,15.96
2022-10-17T20:59:12.104Z,15.95
2022-10-17T21:01:38.556Z,15.91
2022-10-17T21:06:53.322Z,15.89
2022-10-17T21:09:20.257Z,15.92
2022-10-17T21:11:48.086Z,15.92
2022-10-17T21:14:16.629Z,15.91
2022-10-17T21:16:43.495Z,15.91
2022-10-17T21:19:11.559Z,15.86
2022-10-17T21:21:40.903Z,15.90
2022-10-17T21:24:12.915Z,15.96
2022-10-17T21:26:41.088Z,15.95
2022-10-17T21:29:09.203Z,15.87
2022-10-17T21:31:40.438Z,15.85
2022-10-17T21:34:09.247Z,15.86
2022-10-17T21:36:35.727Z,15.89
2022-10-17T21:39:02.541Z,15.89
2022-10-17T21:41:29.884Z,15.87
2022-10-17T21:44:01.185Z,15.85
2022-10-17T21:46:28.320Z,15.88
2022-10-17T21:48:55.404Z,15.84
2022-10-17T21:51:24.225Z,15.80
2022-10-17T21:53:52.128Z,15.86
2022-10-17T21:56:20.835Z,15.79
2022-10-17T21:58:48.406Z,15.74
2022-10-17T22:01:18.041Z,15.67
2022-10-17T22:03:46.912Z,15.60
2022-10-17T22:09:27.863Z,15.49
2022-10-17T22:11:56.549Z,15.48
2022-10-17T22:14:24.761Z,15.48
2022-10-17T22:16:51.473Z,15.54
2022-10-17T22:19:24.913Z,15.52
2022-10-17T22:21:51.473Z,15.53
2022-10-17T22:24:19.361Z,15.57
2022-10-17T22:26:46.528Z,15.58
2022-10-17T22:29:13.425Z,15.59
2022-10-17T22:31:39.969Z,15.57
2022-10-17T22:34:07.485Z,15.55
2022-10-17T22:36:35.400Z,15.58
2022-10-17T22:39:01.858Z,15.57
2022-10-17T22:41:28.675Z,15.52
2022-10-17T22:43:55.181Z,15.47
2022-10-17T22:46:21.716Z,15.48
2022-10-17T22:48:48.128Z,15.46
2022-10-17T22:51:14.922Z,15.35
2022-10-17T22:53:41.420Z,15.23
2022-10-17T22:56:16.645Z,15.17
2022-10-17T22:58:43.425Z,15.14
2022-10-17T23:01:14.557Z,15.17
2022-10-17T23:03:41.266Z,15.18
2022-10-17T23:06:07.769Z,15.21
2022-10-17T23:08:34.239Z,15.23
2022-10-17T23:11:01.068Z,15.16
2022-10-17T23:13:27.528Z,15.04
2022-10-17T23:15:55.634Z,14.96
2022-10-17T23:18:23.188Z,14.84
2022-10-17T23:20:50.097Z,14.84
2022-10-17T23:23:16.663Z,14.84
2022-10-17T23:25:43.845Z,14.84
2022-10-17T23:28:10.981Z,14.73
2022-10-17T23:30:38.939Z,14.58
2022-10-17T23:33:05.980Z,14.57
2022-10-17T23:35:33.085Z,14.61
2022-10-17T23:37:59.614Z,14.61
2022-10-17T23:40:26.310Z,14.54
2022-10-17T23:42:52.762Z,14.48
2022-10-17T23:45:19.238Z,14.48
2022-10-17T23:47:45.735Z,14.41
2022-10-17T23:50:12.476Z,14.31
2022-10-17T23:52:39.203Z,14.27
2022-10-17T23:55:06.295Z,14.30
2022-10-17T23:57:33.057Z,14.39
2022-10-17T23:59:59.729Z,14.52
